sensor_id;sensor_type;location;lat;lon;timestamp;pressure;altitude;pressure_sealevel;temperature;humidity
63808;BME280;49961;43.970;22.868;2022-10-16T00:00:47;102294.59;;;9.46;100.00
63808;BME280;49961;43.970;22.868;2022-10-16T00:01:47;102293.41;;;9.47;100.00
63808;BME280;49961;43.970;22.868;2022-10-16T00:02:48;102299.75;;;9.48;100.00
63808;BME280;49961;43.970;22.868;2022-10-16T00:03:49;102295.78;;;9.49;100.00
63808;BME280;49961;43.970;22.868;2022-10-16T00:04:49;102301.72;;;9.51;100.00
63808;BME280;49961;43.970;22.868;2022-10-16T00:05:50;102303.72;;;9.50;100.00
63808;BME280;49961;43.970;22.868;2022-10-16T00:06:50;102306.50;;;9.54;100.00
63808;BME280;49961;43.970;22.868;2022-10-16T00:07:51;102302.16;;;9.53;100.00
63808;BME280;49961;43.970;22.868;2022-10-16T00:08:52;102250.91;;;9.19;100.00
63808;BME280;49961;43.970;22.868;2022-10-16T00:09:52;102300.97;;;9.54;100.00
63808;BME280;49961;43.970;22.868;2022-10-16T00:10:59;102249.72;;;9.20;100.00
63808;BME280;49961;43.970;22.868;2022-10-16T00:11:59;102294.59;;;9.50;100.00
63808;BME280;49961;43.970;22.868;2022-10-16T00:13:00;102254.13;;;9.24;100.00
63808;BME280;49961;43.970;22.868;2022-10-16T00:14:02;102278.72;;;9.40;100.00
63808;BME280;49961;43.970;22.868;2022-10-16T00:15:03;102290.25;;;9.45;100.00
63808;BME280;49961;43.970;22.868;2022-10-16T00:16:04;102302.47;;;9.44;100.00
63808;BME280;49961;43.970;22.868;2022-10-16T00:17:05;102293.38;;;9.44;100.00
63808;BME280;49961;43.970;22.868;2022-10-16T00:18:05;102298.91;;;9.40;100.00
63808;BME280;49961;43.970;22.868;2022-10-16T00:19:06;102292.16;;;9.38;100.00
63808;BME280;49961;43.970;22.868;2022-10-16T00:20:07;102283.41;;;9.32;100.00
63808;BME280;49961;43.970;22.868;2022-10-16T00:21:14;102288.97;;;9.36;100.00
63808;BME280;49961;43.970;22.868;2022-10-16T00:22:14;102289.75;;;9.33;100.00
63808;BME280;49961;43.970;22.868;2022-10-16T00:23:15;102282.97;;;9.27;100.00
63808;BME280;49961;43.970;22.868;2022-10-16T00:24:15;102287.63;;;9.16;100.00
63808;BME280;49961;43.970;22.868;2022-10-16T00:25:16;102294.44;;;9.29;100.00
63808;BME280;49961;43.970;22.868;2022-10-16T00:26:17;102230.16;;;8.92;100.00
63808;BME280;49961;43.970;22.868;2022-10-16T00:27:18;102288.91;;;9.25;100.00
63808;BME280;49961;43.970;22.868;2022-10-16T00:28:18;102281.78;;;9.24;100.00
63808;BME280;49961;43.970;22.868;2022-10-16T00:29:18;102277.81;;;9.22;100.00
63808;BME280;49961;43.970;22.868;2022-10-16T00:30:19;102236.44;;;8.92;100.00
63808;BME280;49961;43.970;22.868;2022-10-16T00:31:21;102276.59;;;9.19;100.00
63808;BME280;49961;43.970;22.868;2022-10-16T00:32:21;102268.31;;;9.19;100.00
63808;BME280;49961;43.970;22.868;2022-10-16T00:33:22;102286.06;;;9.18;100.00
63808;BME280;49961;43.970;22.868;2022-10-16T00:34:23;102271.44;;;9.18;100.00
63808;BME280;49961;43.970;22.868;2022-10-16T00:35:23;102269.47;;;9.18;100.00
63808;BME280;49961;43.970;22.868;2022-10-16T00:36:25;102278.16;;;9.17;100.00
63808;BME280;49961;43.970;22.868;2022-10-16T00:37:26;102242.03;;;8.96;100.00
63808;BME280;49961;43.970;22.868;2022-10-16T00:38:26;102285.66;;;9.16;100.00
63808;BME280;49961;43.970;22.868;2022-10-16T00:39:27;102279.66;;;9.11;100.00
63808;BME280;49961;43.970;22.868;2022-10-16T00:40:27;102278.16;;;9.17;100.00
63808;BME280;49961;43.970;22.868;2022-10-16T00:41:29;102269.06;;;9.16;100.00
63808;BME280;49961;43.970;22.868;2022-10-16T00:42:30;102279.31;;;9.16;100.00
63808;BME280;49961;43.970;22.868;2022-10-16T00:44:52;102279.31;;;9.16;100.00
63808;BME280;49961;43.970;22.868;2022-10-16T00:45:52;102278.53;;;9.15;100.00
63808;BME280;49961;43.970;22.868;2022-10-16T00:46:53;102272.56;;;9.10;100.00
63808;BME280;49961;43.970;22.868;2022-10-16T00:47:55;102278.53;;;9.15;100.00
63808;BME280;49961;43.970;22.868;2022-10-16T00:50:26;102266.59;;;9.04;100.00
63808;BME280;49961;43.970;22.868;2022-10-16T00:51:36;102274.97;;;9.15;100.00
63808;BME280;49961;43.970;22.868;2022-10-16T00:52:39;102276.16;;;9.14;100.00
63808;BME280;49961;43.970;22.868;2022-10-16T00:53:42;102278.91;;;9.14;100.00
63808;BME280;49961;43.970;22.868;2022-10-16T00:54:42;102282.09;;;9.16;100.00
63808;BME280;49961;43.970;22.868;2022-10-16T00:55:43;102285.66;;;9.16;100.00
63808;BME280;49961;43.970;22.868;2022-10-16T00:56:44;102264.56;;;8.98;100.00
63808;BME280;49961;43.970;22.868;2022-10-16T00:57:46;102259.44;;;9.03;100.00
63808;BME280;49961;43.970;22.868;2022-10-16T00:58:47;102281.31;;;9.15;100.00
63808;BME280;49961;43.970;22.868;2022-10-16T00:59:48;102280.09;;;9.13;100.00
63808;BME280;49961;43.970;22.868;2022-10-16T01:00:48;102288.41;;;9.16;100.00
63808;BME280;49961;43.970;22.868;2022-10-16T01:01:49;102284.06;;;9.15;100.00
63808;BME280;49961;43.970;22.868;2022-10-16T01:02:57;102291.50;;;9.08;100.00
63808;BME280;49961;43.970;22.868;2022-10-16T01:03:57;102292.25;;;9.01;100.00
63808;BME280;49961;43.970;22.868;2022-10-16T01:04:58;102289.06;;;8.99;100.00
63808;BME280;49961;43.970;22.868;2022-10-16T01:06:22;102296.16;;;8.97;100.00
63808;BME280;49961;43.970;22.868;2022-10-16T01:07:42;102296.06;;;8.90;100.00
63808;BME280;49961;43.970;22.868;2022-10-16T01:12:00;102289.56;;;8.68;100.00
63808;BME280;49961;43.970;22.868;2022-10-16T01:13:10;102243.72;;;8.27;100.00
63808;BME280;49961;43.970;22.868;2022-10-16T01:14:20;102249.34;;;8.38;100.00
63808;BME280;49961;43.970;22.868;2022-10-16T01:16:47;102296.47;;;8.52;100.00
63808;BME280;49961;43.970;22.868;2022-10-16T01:20:34;102302.31;;;8.43;100.00
63808;BME280;49961;43.970;22.868;2022-10-16T01:21:43;102309.38;;;8.41;100.00
63808;BME280;49961;43.970;22.868;2022-10-16T01:23:06;102300.22;;;8.33;100.00
63808;BME280;49961;43.970;22.868;2022-10-16T01:27:10;102312.78;;;8.27;100.00
63808;BME280;49961;43.970;22.868;2022-10-16T01:28:13;102312.78;;;8.27;100.00
63808;BME280;49961;43.970;22.868;2022-10-16T01:29:20;102329.75;;;8.29;100.00
63808;BME280;49961;43.970;22.868;2022-10-16T01:30:26;102240.47;;;7.89;100.00
63808;BME280;49961;43.970;22.868;2022-10-16T01:31:32;102312.84;;;8.34;100.00
63808;BME280;49961;43.970;22.868;2022-10-16T01:32:42;102321.13;;;8.34;100.00
63808;BME280;49961;43.970;22.868;2022-10-16T01:33:49;102282.56;;;8.12;100.00
63808;BME280;49961;43.970;22.868;2022-10-16T01:36:34;102320.41;;;8.37;100.00
63808;BME280;49961;43.970;22.868;2022-10-16T01:37:41;102322.72;;;8.35;100.00
63808;BME280;49961;43.970;22.868;2022-10-16T01:38:47;102316.78;;;8.33;100.00
63808;BME280;49961;43.970;22.868;2022-10-16T01:39:49;102323.88;;;8.31;100.00
63808;BME280;49961;43.970;22.868;2022-10-16T01:40:55;102330.13;;;8.28;100.00
63808;BME280;49961;43.970;22.868;2022-10-16T01:42:15;102281.16;;;7.95;100.00
63808;BME280;49961;43.970;22.868;2022-10-16T01:43:20;102321.41;;;8.22;100.00
63808;BME280;49961;43.970;22.868;2022-10-16T01:44:26;102328.00;;;8.18;100.00
63808;BME280;49961;43.970;22.868;2022-10-16T01:45:30;102329.56;;;8.19;100.00
63808;BME280;49961;43.970;22.868;2022-10-16T01:46:33;102269.97;;;7.85;100.00
63808;BME280;49961;43.970;22.868;2022-10-16T01:47:35;102323.72;;;8.20;100.00
63808;BME280;49961;43.970;22.868;2022-10-16T01:48:36;102337.53;;;8.20;100.00
63808;BME280;49961;43.970;22.868;2022-10-16T01:49:38;102319.25;;;8.12;100.00
63808;BME280;49961;43.970;22.868;2022-10-16T01:50:41;102330.91;;;8.25;100.00
63808;BME280;49961;43.970;22.868;2022-10-16T01:51:47;102285.03;;;7.91;100.00
63808;BME280;49961;43.970;22.868;2022-10-16T01:52:51;102351.81;;;8.26;100.00
63808;BME280;49961;43.970;22.868;2022-10-16T01:53:55;102347.06;;;8.26;100.00
63808;BME280;49961;43.970;22.868;2022-10-16T01:54:58;102351.84;;;8.29;100.00
63808;BME280;49961;43.970;22.868;2022-10-16T01:56:02;102347.13;;;8.30;100.00
63808;BME280;49961;43.970;22.868;2022-10-16T01:57:05;102347.91;;;8.30;100.00
63808;BME280;49961;43.970;22.868;2022-10-16T01:58:09;102354.66;;;8.33;100.00
63808;BME280;49961;43.970;22.868;2022-10-16T01:59:13;102354.28;;;8.34;100.00
63808;BME280;49961;43.970;22.868;2022-10-16T02:00:16;102351.16;;;8.36;100.00
63808;BME280;49961;43.970;22.868;2022-10-16T02:01:19;102351.94;;;8.36;100.00
63808;BME280;49961;43.970;22.868;2022-10-16T02:02:22;102344.47;;;8.37;100.00
63808;BME280;49961;43.970;22.868;2022-10-16T02:03:25;102346.06;;;8.41;100.00
63808;BME280;49961;43.970;22.868;2022-10-16T02:04:33;102344.13;;;8.42;100.00
63808;BME280;49961;43.970;22.868;2022-10-16T02:06:40;102324.22;;;8.29;100.00
63808;BME280;49961;43.970;22.868;2022-10-16T02:07:40;102349.28;;;8.43;100.00
63808;BME280;49961;43.970;22.868;2022-10-16T02:08:42;102350.50;;;8.46;100.00
63808;BME280;49961;43.970;22.868;2022-10-16T02:09:44;102344.59;;;8.47;100.00
63808;BME280;49961;43.970;22.868;2022-10-16T02:10:45;102349.72;;;8.49;100.00
63808;BME280;49961;43.970;22.868;2022-10-16T02:11:45;102356.88;;;8.50;100.00
63808;BME280;49961;43.970;22.868;2022-10-16T02:12:56;102345.75;;;8.46;100.00
63808;BME280;49961;43.970;22.868;2022-10-16T02:14:04;102357.69;;;8.54;100.00
63808;BME280;49961;43.970;22.868;2022-10-16T02:15:06;102349.03;;;8.55;100.00
63808;BME280;49961;43.970;22.868;2022-10-16T02:16:07;102265.91;;;8.05;100.00
63808;BME280;49961;43.970;22.868;2022-10-16T02:17:14;102340.00;;;8.58;100.00
63808;BME280;49961;43.970;22.868;2022-10-16T02:18:14;102351.44;;;8.60;100.00
63808;BME280;49961;43.970;22.868;2022-10-16T02:19:17;102349.09;;;8.62;100.00
63808;BME280;49961;43.970;22.868;2022-10-16T02:20:25;102354.63;;;8.62;100.00
63808;BME280;49961;43.970;22.868;2022-10-16T02:21:29;102339.50;;;8.53;100.00
63808;BME280;49961;43.970;22.868;2022-10-16T02:22:40;102358.59;;;8.65;100.00
63808;BME280;49961;43.970;22.868;2022-10-16T02:25:30;102365.75;;;8.66;100.00
63808;BME280;49961;43.970;22.868;2022-10-16T02:26:38;102356.22;;;8.63;100.00
63808;BME280;49961;43.970;22.868;2022-10-16T02:27:51;102293.22;;;8.13;100.00
63808;BME280;49961;43.970;22.868;2022-10-16T02:28:59;102370.38;;;8.58;100.00
63808;BME280;49961;43.970;22.868;2022-10-16T02:31:11;102362.78;;;8.52;100.00
63808;BME280;49961;43.970;22.868;2022-10-16T02:32:17;102330.50;;;8.26;100.00
63808;BME280;49961;43.970;22.868;2022-10-16T02:33:21;102368.69;;;8.50;100.00
63808;BME280;49961;43.970;22.868;2022-10-16T02:34:25;102321.00;;;8.24;100.00
63808;BME280;49961;43.970;22.868;2022-10-16T02:35:27;102368.28;;;8.48;100.00
63808;BME280;49961;43.970;22.868;2022-10-16T02:36:29;102337.16;;;8.22;100.00
63808;BME280;49961;43.970;22.868;2022-10-16T02:37:30;102354.66;;;8.33;100.00
63808;BME280;49961;43.970;22.868;2022-10-16T02:38:31;102370.69;;;8.50;100.00
63808;BME280;49961;43.970;22.868;2022-10-16T02:39:33;102370.69;;;8.50;100.00
63808;BME280;49961;43.970;22.868;2022-10-16T02:40:34;102295.50;;;8.08;100.00
63808;BME280;49961;43.970;22.868;2022-10-16T02:41:35;102365.56;;;8.52;100.00
63808;BME280;49961;43.970;22.868;2022-10-16T02:42:38;102370.31;;;8.55;100.00
63808;BME280;49961;43.970;22.868;2022-10-16T02:43:39;102362.84;;;8.55;100.00
63808;BME280;49961;43.970;22.868;2022-10-16T02:44:39;102364.78;;;8.55;100.00
63808;BME280;49961;43.970;22.868;2022-10-16T02:45:40;102362.78;;;8.52;100.00
63808;BME280;49961;43.970;22.868;2022-10-16T02:46:40;102367.97;;;8.53;100.00
63808;BME280;49961;43.970;22.868;2022-10-16T02:47:41;102362.44;;;8.53;100.00
63808;BME280;49961;43.970;22.868;2022-10-16T02:48:41;102371.91;;;8.52;100.00
63808;BME280;49961;43.970;22.868;2022-10-16T02:49:42;102363.59;;;8.52;100.00
63808;BME280;49961;43.970;22.868;2022-10-16T02:50:42;102365.56;;;8.52;100.00
63808;BME280;49961;43.970;22.868;2022-10-16T02:51:43;102373.84;;;8.52;100.00
63808;BME280;49961;43.970;22.868;2022-10-16T02:52:43;102373.03;;;8.51;100.00
63808;BME280;49961;43.970;22.868;2022-10-16T02:53:44;102371.91;;;8.52;100.00
63808;BME280;49961;43.970;22.868;2022-10-16T02:54:44;102364.31;;;8.46;100.00
63808;BME280;49961;43.970;22.868;2022-10-16T02:55:44;102358.31;;;8.40;100.00
63808;BME280;49961;43.970;22.868;2022-10-16T02:56:45;102377.84;;;8.54;100.00
63808;BME280;49961;43.970;22.868;2022-10-16T02:57:45;102381.38;;;8.55;100.00
63808;BME280;49961;43.970;22.868;2022-10-16T02:58:46;102377.44;;;8.52;100.00
63808;BME280;49961;43.970;22.868;2022-10-16T02:59:46;102367.47;;;8.48;100.00
63808;BME280;49961;43.970;22.868;2022-10-16T03:00:47;102368.28;;;8.48;100.00
63808;BME280;49961;43.970;22.868;2022-10-16T03:01:47;102377.03;;;8.54;100.00
63808;BME280;49961;43.970;22.868;2022-10-16T03:02:47;102379.41;;;8.55;100.00
63808;BME280;49961;43.970;22.868;2022-10-16T03:03:48;102380.97;;;8.53;100.00
63808;BME280;49961;43.970;22.868;2022-10-16T03:04:48;102377.03;;;8.54;100.00
63808;BME280;49961;43.970;22.868;2022-10-16T03:05:50;102285.97;;;8.02;100.00
63808;BME280;49961;43.970;22.868;2022-10-16T03:06:50;102378.25;;;8.56;100.00
63808;BME280;49961;43.970;22.868;2022-10-16T03:07:51;102383.03;;;8.59;100.00
63808;BME280;49961;43.970;22.868;2022-10-16T03:08:52;102371.97;;;8.59;100.00
63808;BME280;49961;43.970;22.868;2022-10-16T03:09:53;102374.72;;;8.59;100.00
63808;BME280;49961;43.970;22.868;2022-10-16T03:10:54;102376.31;;;8.60;100.00
63808;BME280;49961;43.970;22.868;2022-10-16T03:11:55;102362.38;;;8.50;100.00
63808;BME280;49961;43.970;22.868;2022-10-16T03:12:55;102377.13;;;8.61;100.00
63808;BME280;49961;43.970;22.868;2022-10-16T03:13:56;102377.53;;;8.63;100.00
63808;BME280;49961;43.970;22.868;2022-10-16T03:14:57;102381.09;;;8.63;100.00
63808;BME280;49961;43.970;22.868;2022-10-16T03:15:57;102378.34;;;8.63;100.00
63808;BME280;49961;43.970;22.868;2022-10-16T03:16:58;102380.28;;;8.63;100.00
63808;BME280;49961;43.970;22.868;2022-10-16T03:17:58;102376.34;;;8.64;100.00
63808;BME280;49961;43.970;22.868;2022-10-16T03:18:59;102381.50;;;8.65;100.00
63808;BME280;49961;43.970;22.868;2022-10-16T03:19:59;102334.94;;;8.34;100.00
63808;BME280;49961;43.970;22.868;2022-10-16T03:21:00;102363.66;;;8.56;100.00
63808;BME280;49961;43.970;22.868;2022-10-16T03:22:00;102392.22;;;8.70;100.00
63808;BME280;49961;43.970;22.868;2022-10-16T03:23:01;102383.09;;;8.66;100.00
63808;BME280;49961;43.970;22.868;2022-10-16T03:24:02;102327.31;;;8.24;100.00
63808;BME280;49961;43.970;22.868;2022-10-16T03:25:03;102381.78;;;8.53;100.00
63808;BME280;49961;43.970;22.868;2022-10-16T03:26:04;102384.06;;;8.48;100.00
63808;BME280;49961;43.970;22.868;2022-10-16T03:27:04;102382.06;;;8.45;100.00
63808;BME280;49961;43.970;22.868;2022-10-16T03:28:05;102380.00;;;8.38;100.00
63808;BME280;49961;43.970;22.868;2022-10-16T03:29:06;102391.78;;;8.35;100.00
63808;BME280;49961;43.970;22.868;2022-10-16T03:30:07;102384.63;;;8.31;100.00
63808;BME280;49961;43.970;22.868;2022-10-16T03:31:08;102390.53;;;8.29;100.00
63808;BME280;49961;43.970;22.868;2022-10-16T03:32:08;102383.78;;;8.27;100.00
63808;BME280;49961;43.970;22.868;2022-10-16T03:33:08;102393.22;;;8.22;100.00
63808;BME280;49961;43.970;22.868;2022-10-16T03:34:09;102382.88;;;8.19;100.00
63808;BME280;49961;43.970;22.868;2022-10-16T03:35:09;102395.53;;;8.20;100.00
63808;BME280;49961;43.970;22.868;2022-10-16T03:36:10;102395.88;;;8.19;100.00
63808;BME280;49961;43.970;22.868;2022-10-16T03:37:10;102375.19;;;8.06;100.00
63808;BME280;49961;43.970;22.868;2022-10-16T03:38:11;102387.84;;;8.10;100.00
63808;BME280;49961;43.970;22.868;2022-10-16T03:39:11;102397.34;;;8.13;100.00
63808;BME280;49961;43.970;22.868;2022-10-16T03:40:13;102402.84;;;8.09;100.00
63808;BME280;49961;43.970;22.868;2022-10-16T03:41:14;102322.84;;;7.61;100.00
63808;BME280;49961;43.970;22.868;2022-10-16T03:42:14;102402.78;;;8.06;100.00
63808;BME280;49961;43.970;22.868;2022-10-16T03:43:15;102405.56;;;8.06;100.00
63808;BME280;49961;43.970;22.868;2022-10-16T03:44:15;102397.22;;;8.02;100.00
63808;BME280;49961;43.970;22.868;2022-10-16T03:45:16;102390.81;;;7.95;100.00
63808;BME280;49961;43.970;22.868;2022-10-16T03:46:17;102406.19;;;7.96;100.00
63808;BME280;49961;43.970;22.868;2022-10-16T03:47:17;102404.16;;;7.93;100.00
63808;BME280;49961;43.970;22.868;2022-10-16T03:48:21;102395.47;;;7.91;100.00
63808;BME280;49961;43.970;22.868;2022-10-16T03:49:22;102401.34;;;7.89;100.00
63808;BME280;49961;43.970;22.868;2022-10-16T03:50:22;102402.13;;;7.86;100.00
63808;BME280;49961;43.970;22.868;2022-10-16T03:51:22;102405.59;;;7.83;100.00
63808;BME280;49961;43.970;22.868;2022-10-16T03:52:23;102397.69;;;7.82;100.00
63808;BME280;49961;43.970;22.868;2022-10-16T03:53:24;102397.69;;;7.82;100.00
63808;BME280;49961;43.970;22.868;2022-10-16T03:54:24;102400.81;;;7.80;100.00
63808;BME280;49961;43.970;22.868;2022-10-16T03:55:25;102403.56;;;7.80;100.00
63808;BME280;49961;43.970;22.868;2022-10-16T03:56:26;102336.69;;;7.38;100.00
63808;BME280;49961;43.970;22.868;2022-10-16T03:57:26;102410.63;;;7.78;100.00
63808;BME280;49961;43.970;22.868;2022-10-16T03:58:27;102409.47;;;7.79;100.00
63808;BME280;49961;43.970;22.868;2022-10-16T03:59:27;102404.69;;;7.76;100.00
63808;BME280;49961;43.970;22.868;2022-10-16T04:00:27;102407.03;;;7.74;100.00
63808;BME280;49961;43.970;22.868;2022-10-16T04:01:28;102425.13;;;7.71;100.00
63808;BME280;49961;43.970;22.868;2022-10-16T04:02:28;102411.19;;;7.64;100.00
63808;BME280;49961;43.970;22.868;2022-10-16T04:03:29;102428.94;;;7.63;100.00
63808;BME280;49961;43.970;22.868;2022-10-16T04:04:29;102426.97;;;7.64;100.00
63808;BME280;49961;43.970;22.868;2022-10-16T04:05:30;102421.31;;;7.57;100.00
63808;BME280;49961;43.970;22.868;2022-10-16T04:06:30;102423.97;;;7.50;100.00
63808;BME280;49961;43.970;22.868;2022-10-16T04:07:31;102431.44;;;7.49;100.00
63808;BME280;49961;43.970;22.868;2022-10-16T04:08:31;102426.72;;;7.50;100.00
63808;BME280;49961;43.970;22.868;2022-10-16T04:09:34;102376.97;;;7.20;100.00
63808;BME280;49961;43.970;22.868;2022-10-16T04:10:35;102429.91;;;7.52;100.00
63808;BME280;49961;43.970;22.868;2022-10-16T04:11:35;102421.22;;;7.50;100.00
63808;BME280;49961;43.970;22.868;2022-10-16T04:12:36;102422.44;;;7.52;100.00
63808;BME280;49961;43.970;22.868;2022-10-16T04:13:36;102424.84;;;7.54;100.00
63808;BME280;49961;43.970;22.868;2022-10-16T04:14:37;102423.66;;;7.55;100.00
63808;BME280;49961;43.970;22.868;2022-10-16T04:15:37;102424.88;;;7.57;100.00
63808;BME280;49961;43.970;22.868;2022-10-16T04:16:38;102421.41;;;7.60;100.00
63808;BME280;49961;43.970;22.868;2022-10-16T04:17:39;102411.50;;;7.59;100.00
63808;BME280;49961;43.970;22.868;2022-10-16T04:18:39;102335.09;;;7.15;100.00
63808;BME280;49961;43.970;22.868;2022-10-16T04:19:39;102404.34;;;7.55;100.00
63808;BME280;49961;43.970;22.868;2022-10-16T04:20:40;102413.97;;;7.64;100.00
63808;BME280;49961;43.970;22.868;2022-10-16T04:21:41;102416.00;;;7.67;100.00
63808;BME280;49961;43.970;22.868;2022-10-16T04:22:41;102417.22;;;7.70;100.00
63808;BME280;49961;43.970;22.868;2022-10-16T04:23:42;102423.50;;;7.70;100.00
63808;BME280;49961;43.970;22.868;2022-10-16T04:24:43;102422.75;;;7.70;100.00
63808;BME280;49961;43.970;22.868;2022-10-16T04:25:43;102334.69;;;7.13;100.00
63808;BME280;49961;43.970;22.868;2022-10-16T04:26:44;102424.69;;;7.69;100.00
63808;BME280;49961;43.970;22.868;2022-10-16T04:27:44;102434.13;;;7.68;100.00
63808;BME280;49961;43.970;22.868;2022-10-16T04:28:44;102431.75;;;7.67;100.00
63808;BME280;49961;43.970;22.868;2022-10-16T04:29:45;102434.91;;;7.65;100.00
63808;BME280;49961;43.970;22.868;2022-10-16T04:30:45;102427.75;;;7.64;100.00
63808;BME280;49961;43.970;22.868;2022-10-16T04:31:46;102307.78;;;6.84;100.00
63808;BME280;49961;43.970;22.868;2022-10-16T04:32:50;102310.53;;;6.84;100.00
63808;BME280;49961;43.970;22.868;2022-10-16T04:33:51;102430.41;;;7.57;100.00
63808;BME280;49961;43.970;22.868;2022-10-16T04:34:52;102388.72;;;7.17;100.00
63808;BME280;49961;43.970;22.868;2022-10-16T04:35:59;102432.66;;;7.52;100.00
63808;BME280;49961;43.970;22.868;2022-10-16T04:37:00;102434.19;;;7.49;100.00
63808;BME280;49961;43.970;22.868;2022-10-16T04:38:00;102429.84;;;7.48;100.00
63808;BME280;49961;43.970;22.868;2022-10-16T04:39:01;102424.28;;;7.45;100.00
63808;BME280;49961;43.970;22.868;2022-10-16T04:40:02;102399.88;;;7.24;100.00
63808;BME280;49961;43.970;22.868;2022-10-16T04:41:03;102426.16;;;7.41;100.00
63808;BME280;49961;43.970;22.868;2022-10-16T04:42:03;102434.03;;;7.39;100.00
63808;BME280;49961;43.970;22.868;2022-10-16T04:43:04;102350.69;;;6.85;100.00
63808;BME280;49961;43.970;22.868;2022-10-16T04:44:06;102427.66;;;7.35;100.00
63808;BME280;49961;43.970;22.868;2022-10-16T04:45:06;102414.03;;;7.23;100.00
63808;BME280;49961;43.970;22.868;2022-10-16T04:46:08;102429.97;;;7.33;100.00
63808;BME280;49961;43.970;22.868;2022-10-16T04:47:10;102414.28;;;7.14;100.00
63808;BME280;49961;43.970;22.868;2022-10-16T04:48:10;102431.50;;;7.30;100.00
63808;BME280;49961;43.970;22.868;2022-10-16T04:49:11;102416.34;;;7.21;100.00
63808;BME280;49961;43.970;22.868;2022-10-16T04:50:11;102431.44;;;7.27;100.00
63808;BME280;49961;43.970;22.868;2022-10-16T04:51:12;102435.34;;;7.26;100.00
63808;BME280;49961;43.970;22.868;2022-10-16T04:52:13;102432.97;;;7.24;100.00
63808;BME280;49961;43.970;22.868;2022-10-16T04:53:13;102431.81;;;7.25;100.00
63808;BME280;49961;43.970;22.868;2022-10-16T04:54:14;102435.34;;;7.26;100.00
63808;BME280;49961;43.970;22.868;2022-10-16T04:55:14;102435.34;;;7.26;100.00
63808;BME280;49961;43.970;22.868;2022-10-16T04:56:15;102427.81;;;7.23;100.00
63808;BME280;49961;43.970;22.868;2022-10-16T04:57:16;102448.78;;;7.27;100.00
63808;BME280;49961;43.970;22.868;2022-10-16T04:58:17;102446.03;;;7.27;100.00
63808;BME280;49961;43.970;22.868;2022-10-16T04:59:19;102447.97;;;7.27;100.00
63808;BME280;49961;43.970;22.868;2022-10-16T05:00:19;102443.25;;;7.27;100.00
63808;BME280;49961;43.970;22.868;2022-10-16T05:01:20;102438.09;;;7.26;100.00
63808;BME280;49961;43.970;22.868;2022-10-16T05:02:20;102402.13;;;6.96;100.00
63808;BME280;49961;43.970;22.868;2022-10-16T05:03:21;102439.28;;;7.25;100.00
63808;BME280;49961;43.970;22.868;2022-10-16T05:04:21;102439.22;;;7.21;100.00
63808;BME280;49961;43.970;22.868;2022-10-16T05:05:22;102443.63;;;7.26;100.00
63808;BME280;49961;43.970;22.868;2022-10-16T05:06:23;102444.44;;;7.26;100.00
63808;BME280;49961;43.970;22.868;2022-10-16T05:07:23;102443.25;;;7.27;100.00
63808;BME280;49961;43.970;22.868;2022-10-16T05:08:24;102447.56;;;7.25;100.00
63808;BME280;49961;43.970;22.868;2022-10-16T05:09:24;102447.19;;;7.26;100.00
63808;BME280;49961;43.970;22.868;2022-10-16T05:10:24;102432.84;;;7.17;100.00
63808;BME280;49961;43.970;22.868;2022-10-16T05:11:25;102408.19;;;7.05;100.00
63808;BME280;49961;43.970;22.868;2022-10-16T05:12:25;102455.09;;;7.28;100.00
63808;BME280;49961;43.970;22.868;2022-10-16T05:13:26;102461.84;;;7.30;100.00
63808;BME280;49961;43.970;22.868;2022-10-16T05:14:26;102455.88;;;7.28;100.00
63808;BME280;49961;43.970;22.868;2022-10-16T05:15:27;102458.66;;;7.28;100.00
63808;BME280;49961;43.970;22.868;2022-10-16T05:16:29;102416.69;;;6.97;100.00
63808;BME280;49961;43.970;22.868;2022-10-16T05:17:30;102458.28;;;7.30;100.00
63808;BME280;49961;43.970;22.868;2022-10-16T05:18:31;102469.66;;;7.28;100.00
63808;BME280;49961;43.970;22.868;2022-10-16T05:19:31;102463.00;;;7.29;100.00
63808;BME280;49961;43.970;22.868;2022-10-16T05:20:32;102472.44;;;7.28;100.00
63808;BME280;49961;43.970;22.868;2022-10-16T05:21:32;102473.59;;;7.27;100.00
63808;BME280;49961;43.970;22.868;2022-10-16T05:22:32;102476.41;;;7.31;100.00
63808;BME280;49961;43.970;22.868;2022-10-16T05:23:33;102362.06;;;6.61;100.00
63808;BME280;49961;43.970;22.868;2022-10-16T05:24:33;102477.66;;;7.33;100.00
63808;BME280;49961;43.970;22.868;2022-10-16T05:25:34;102478.53;;;7.37;100.00
63808;BME280;49961;43.970;22.868;2022-10-16T05:26:34;102476.13;;;7.36;100.00
63808;BME280;49961;43.970;22.868;2022-10-16T05:27:35;102486.50;;;7.42;100.00
63808;BME280;49961;43.970;22.868;2022-10-16T05:28:35;102484.97;;;7.45;100.00
63808;BME280;49961;43.970;22.868;2022-10-16T05:29:35;102488.53;;;7.45;100.00
63808;BME280;49961;43.970;22.868;2022-10-16T05:30:37;102482.63;;;7.47;100.00
63808;BME280;49961;43.970;22.868;2022-10-16T05:31:37;102477.84;;;7.44;100.00
63808;BME280;49961;43.970;22.868;2022-10-16T05:32:38;102487.06;;;7.51;100.00
63808;BME280;49961;43.970;22.868;2022-10-16T05:33:38;102481.19;;;7.53;100.00
63808;BME280;49961;43.970;22.868;2022-10-16T05:34:39;102485.53;;;7.54;100.00
63808;BME280;49961;43.970;22.868;2022-10-16T05:35:39;102484.00;;;7.56;100.00
63808;BME280;49961;43.970;22.868;2022-10-16T05:36:39;102480.94;;;7.61;100.00
63808;BME280;49961;43.970;22.868;2022-10-16T05:37:40;102481.34;;;7.63;100.00
63808;BME280;49961;43.970;22.868;2022-10-16T05:38:41;102468.63;;;7.55;100.00